sensor_id;sensor_type;location;lat;lon;timestamp;pressure;altitude;pressure_sealevel;temperature;humidity
81057;BME280;70563;50.084;14.468;2023-08-01T00:01:49;97777.72;;;18.36;63.20
81057;BME280;70563;50.084;14.468;2023-08-01T00:04:15;97782.19;;;18.30;63.79
81057;BME280;70563;50.084;14.468;2023-08-01T00:06:41;97774.41;;;18.24;63.74
81057;BME280;70563;50.084;14.468;2023-08-01T00:09:06;97775.47;;;18.23;64.56
81057;BME280;70563;50.084;14.468;2023-08-01T00:11:32;97764.00;;;18.27;64.16
81057;BME280;70563;50.084;14.468;2023-08-01T00:13:57;97758.56;;;18.17;64.43
81057;BME280;70563;50.084;14.468;2023-08-01T00:16:23;97762.34;;;18.21;65.32
81057;BME280;70563;50.084;14.468;2023-08-01T00:18:49;97757.19;;;18.10;65.31
81057;BME280;70563;50.084;14.468;2023-08-01T00:21:15;97740.50;;;17.97;65.93
81057;BME280;70563;50.084;14.468;2023-08-01T00:23:40;97746.31;;;17.89;66.36
81057;BME280;70563;50.084;14.468;2023-08-01T00:26:06;97749.16;;;17.83;67.55
81057;BME280;70563;50.084;14.468;2023-08-01T00:28:31;97742.72;;;17.78;67.45
81057;BME280;70563;50.084;14.468;2023-08-01T00:31:07;97732.50;;;17.70;67.87
81057;BME280;70563;50.084;14.468;2023-08-01T00:33:36;97724.41;;;17.65;67.75
81057;BME280;70563;50.084;14.468;2023-08-01T00:36:02;97717.91;;;17.56;68.43
81057;BME280;70563;50.084;14.468;2023-08-01T00:38:28;97721.03;;;17.48;69.43
81057;BME280;70563;50.084;14.468;2023-08-01T00:40:54;97710.09;;;17.44;69.32
81057;BME280;70563;50.084;14.468;2023-08-01T00:43:19;97700.69;;;17.42;70.11
81057;BME280;70563;50.084;14.468;2023-08-01T00:45:45;97690.53;;;17.39;70.67
81057;BME280;70563;50.084;14.468;2023-08-01T00:48:11;97684.63;;;17.37;71.17
81057;BME280;70563;50.084;14.468;2023-08-01T00:50:38;97682.72;;;17.32;71.45
81057;BME280;70563;50.084;14.468;2023-08-01T00:53:04;97687.75;;;17.28;72.05
81057;BME280;70563;50.084;14.468;2023-08-01T00:55:32;97674.59;;;17.22;71.86
81057;BME280;70563;50.084;14.468;2023-08-01T00:57:57;97675.66;;;17.21;72.33
81057;BME280;70563;50.084;14.468;2023-08-01T01:00:23;97680.47;;;17.19;72.34
81057;BME280;70563;50.084;14.468;2023-08-01T01:02:48;97676.72;;;17.20;72.79
81057;BME280;70563;50.084;14.468;2023-08-01T01:05:14;97667.91;;;17.19;72.52
81057;BME280;70563;50.084;14.468;2023-08-01T01:07:41;97665.47;;;17.18;72.43
81057;BME280;70563;50.084;14.468;2023-08-01T01:10:06;97665.47;;;17.18;72.62
81057;BME280;70563;50.084;14.468;2023-08-01T01:12:32;97662.06;;;17.22;72.50
81057;BME280;70563;50.084;14.468;2023-08-01T01:14:57;97654.63;;;17.24;71.95
81057;BME280;70563;50.084;14.468;2023-08-01T01:17:23;97658.38;;;17.23;72.27
81057;BME280;70563;50.084;14.468;2023-08-01T01:19:48;97650.94;;;17.30;72.12
81057;BME280;70563;50.084;14.468;2023-08-01T01:22:14;97652.56;;;17.32;71.71
81057;BME280;70563;50.084;14.468;2023-08-01T01:24:42;97645.66;;;17.36;71.61
81057;BME280;70563;50.084;14.468;2023-08-01T01:27:08;97642.50;;;17.39;71.54
81057;BME280;70563;50.084;14.468;2023-08-01T01:29:34;97634.44;;;17.34;71.75
81057;BME280;70563;50.084;14.468;2023-08-01T01:32:01;97637.72;;;17.41;71.84
81057;BME280;70563;50.084;14.468;2023-08-01T01:34:29;97637.94;;;17.39;71.35
81057;BME280;70563;50.084;14.468;2023-08-01T01:36:55;97633.94;;;17.37;71.29
81057;BME280;70563;50.084;14.468;2023-08-01T01:39:20;97629.16;;;17.39;71.10
81057;BME280;70563;50.084;14.468;2023-08-01T01:41:46;97627.34;;;17.44;71.13
81057;BME280;70563;50.084;14.468;2023-08-01T01:44:11;97626.78;;;17.42;70.69
81057;BME280;70563;50.084;14.468;2023-08-01T01:46:36;97620.44;;;17.48;70.14
81057;BME280;70563;50.084;14.468;2023-08-01T01:49:02;97612.69;;;17.47;69.81
81057;BME280;70563;50.084;14.468;2023-08-01T01:51:28;97606.81;;;17.45;69.82
81057;BME280;70563;50.084;14.468;2023-08-01T01:53:54;97598.22;;;17.43;69.54
81057;BME280;70563;50.084;14.468;2023-08-01T01:56:19;97598.22;;;17.43;69.82
81057;BME280;70563;50.084;14.468;2023-08-01T01:58:45;97589.13;;;17.39;69.90
81057;BME280;70563;50.084;14.468;2023-08-01T02:01:10;97588.03;;;17.35;70.24
81057;BME280;70563;50.084;14.468;2023-08-01T02:03:35;97584.81;;;17.33;70.45
81057;BME280;70563;50.084;14.468;2023-08-01T02:06:02;97585.03;;;17.31;70.09
81057;BME280;70563;50.084;14.468;2023-08-01T02:08:29;97580.53;;;17.32;70.53
81057;BME280;70563;50.084;14.468;2023-08-01T02:10:54;97565.84;;;17.29;70.44
81057;BME280;70563;50.084;14.468;2023-08-01T02:13:23;97562.09;;;17.30;70.57
81057;BME280;70563;50.084;14.468;2023-08-01T02:15:48;97565.88;;;17.34;70.19
81057;BME280;70563;50.084;14.468;2023-08-01T02:18:13;97556.25;;;17.33;70.48
81057;BME280;70563;50.084;14.468;2023-08-01T02:20:39;97558.66;;;17.35;70.51
81057;BME280;70563;50.084;14.468;2023-08-01T02:23:04;97554.66;;;17.32;70.35
81057;BME280;70563;50.084;14.468;2023-08-01T02:25:29;97552.22;;;17.30;70.61
81057;BME280;70563;50.084;14.468;2023-08-01T02:27:54;97546.09;;;17.30;70.62
81057;BME280;70563;50.084;14.468;2023-08-01T02:30:20;97544.75;;;17.27;70.61
81057;BME280;70563;50.084;14.468;2023-08-01T02:32:45;97550.84;;;17.23;70.98
81057;BME280;70563;50.084;14.468;2023-08-01T02:35:11;97546.31;;;17.23;70.81
81057;BME280;70563;50.084;14.468;2023-08-01T02:37:36;97553.75;;;17.21;71.01
81057;BME280;70563;50.084;14.468;2023-08-01T02:40:05;97556.19;;;17.23;71.18
81057;BME280;70563;50.084;14.468;2023-08-01T02:42:33;97555.88;;;17.19;70.97
81057;BME280;70563;50.084;14.468;2023-08-01T02:44:58;97552.41;;;17.19;71.42
81057;BME280;70563;50.084;14.468;2023-08-01T02:47:24;97545.22;;;17.19;71.37
81057;BME280;70563;50.084;14.468;2023-08-01T02:49:49;97540.88;;;17.13;71.61
81057;BME280;70563;50.084;14.468;2023-08-01T02:52:15;97537.09;;;17.09;72.04
81057;BME280;70563;50.084;14.468;2023-08-01T02:54:40;97524.50;;;16.99;72.99
81057;BME280;70563;50.084;14.468;2023-08-01T02:57:05;97517.75;;;16.92;73.81
81057;BME280;70563;50.084;14.468;2023-08-01T02:59:31;97517.16;;;16.85;74.43
81057;BME280;70563;50.084;14.468;2023-08-01T03:01:58;97510.19;;;16.84;73.96
81057;BME280;70563;50.084;14.468;2023-08-01T03:04:24;97509.09;;;16.79;74.65
81057;BME280;70563;50.084;14.468;2023-08-01T03:06:49;97510.69;;;16.75;74.13
81057;BME280;70563;50.084;14.468;2023-08-01T03:09:14;97511.22;;;16.77;74.56
81057;BME280;70563;50.084;14.468;2023-08-01T03:11:41;97514.41;;;16.79;74.07
81057;BME280;70563;50.084;14.468;2023-08-01T03:14:06;97503.75;;;16.79;74.49
81057;BME280;70563;50.084;14.468;2023-08-01T03:16:32;97509.63;;;16.76;74.20
81057;BME280;70563;50.084;14.468;2023-08-01T03:18:57;97510.72;;;16.80;74.88
81057;BME280;70563;50.084;14.468;2023-08-01T03:21:25;97502.69;;;16.75;74.84
81057;BME280;70563;50.084;14.468;2023-08-01T03:23:51;97507.19;;;16.75;74.72
81057;BME280;70563;50.084;14.468;2023-08-01T03:26:17;97508.25;;;16.74;75.02
81057;BME280;70563;50.084;14.468;2023-08-01T03:28:43;97494.47;;;16.82;74.50
81057;BME280;70563;50.084;14.468;2023-08-01T03:31:08;97493.66;;;16.82;74.36
81057;BME280;70563;50.084;14.468;2023-08-01T03:33:34;97496.03;;;16.78;75.20
81057;BME280;70563;50.084;14.468;2023-08-01T03:35:59;97491.75;;;16.77;74.53
81057;BME280;70563;50.084;14.468;2023-08-01T03:38:25;97485.97;;;16.85;74.94
81057;BME280;70563;50.084;14.468;2023-08-01T03:40:50;97485.66;;;16.82;73.94
81057;BME280;70563;50.084;14.468;2023-08-01T03:43:15;97473.19;;;16.87;74.14
81057;BME280;70563;50.084;14.468;2023-08-01T03:45:41;97474.25;;;16.86;74.11
81057;BME280;70563;50.084;14.468;2023-08-01T03:48:06;97474.50;;;16.85;74.79
81057;BME280;70563;50.084;14.468;2023-08-01T03:50:31;97471.06;;;16.89;73.56
81057;BME280;70563;50.084;14.468;2023-08-01T03:52:57;97475.03;;;16.87;74.15
81057;BME280;70563;50.084;14.468;2023-08-01T03:55:22;97472.38;;;16.87;74.14
81057;BME280;70563;50.084;14.468;2023-08-01T03:57:47;97475.31;;;16.85;74.19
81057;BME280;70563;50.084;14.468;2023-08-01T04:00:13;97472.63;;;16.85;74.38
81057;BME280;70563;50.084;14.468;2023-08-01T04:02:42;97468.16;;;16.91;73.78
81057;BME280;70563;50.084;14.468;2023-08-01T04:05:08;97470.31;;;16.94;73.90
81057;BME280;70563;50.084;14.468;2023-08-01T04:07:35;97464.97;;;16.94;73.44
81057;BME280;70563;50.084;14.468;2023-08-01T04:10:01;97462.84;;;16.96;73.67
81057;BME280;70563;50.084;14.468;2023-08-01T04:12:27;97454.34;;;16.99;72.89
81057;BME280;70563;50.084;14.468;2023-08-01T04:14:52;97448.53;;;17.02;72.93
81057;BME280;70563;50.084;14.468;2023-08-01T04:17:18;97445.88;;;17.07;72.91
81057;BME280;70563;50.084;14.468;2023-08-01T04:19:43;97435.75;;;17.09;72.49
81057;BME280;70563;50.084;14.468;2023-08-01T04:22:08;97433.66;;;17.11;72.36
81057;BME280;70563;50.084;14.468;2023-08-01T04:24:34;97431.28;;;17.15;71.87
81057;BME280;70563;50.084;14.468;2023-08-01T04:26:59;97432.09;;;17.15;72.43
81057;BME280;70563;50.084;14.468;2023-08-01T04:29:25;97419.28;;;17.17;71.88
81057;BME280;70563;50.084;14.468;2023-08-01T04:31:50;97424.13;;;17.20;72.11
81057;BME280;70563;50.084;14.468;2023-08-01T04:34:15;97434.53;;;17.22;71.49
81057;BME280;70563;50.084;14.468;2023-08-01T04:36:41;97427.59;;;17.21;71.67
81057;BME280;70563;50.084;14.468;2023-08-01T04:39:06;97425.72;;;17.21;71.24
81057;BME280;70563;50.084;14.468;2023-08-01T04:41:31;97426.28;;;17.23;71.14
81057;BME280;70563;50.084;14.468;2023-08-01T04:43:57;97429.44;;;17.20;72.03
81057;BME280;70563;50.084;14.468;2023-08-01T04:46:22;97417.19;;;17.19;71.83
81057;BME280;70563;50.084;14.468;2023-08-01T04:48:48;97421.72;;;17.19;72.17
81057;BME280;70563;50.084;14.468;2023-08-01T04:51:13;97410.81;;;17.25;71.90
81057;BME280;70563;50.084;14.468;2023-08-01T04:53:38;97413.47;;;17.25;71.22
81057;BME280;70563;50.084;14.468;2023-08-01T04:56:04;97418.31;;;17.28;71.89
81057;BME280;70563;50.084;14.468;2023-08-01T04:58:29;97415.63;;;17.28;71.44
81057;BME280;70563;50.084;14.468;2023-08-01T05:00:55;97416.16;;;17.30;71.42
81057;BME280;70563;50.084;14.468;2023-08-01T05:03:21;97410.06;;;17.35;71.39
81057;BME280;70563;50.084;14.468;2023-08-01T05:05:46;97411.94;;;17.35;71.19
81057;BME280;70563;50.084;14.468;2023-08-01T05:08:12;97398.88;;;17.38;70.88
81057;BME280;70563;50.084;14.468;2023-08-01T05:10:37;97410.34;;;17.39;70.66
81057;BME280;70563;50.084;14.468;2023-08-01T05:13:02;97387.41;;;17.38;70.74
81057;BME280;70563;50.084;14.468;2023-08-01T05:15:28;97394.66;;;17.47;70.10
81057;BME280;70563;50.084;14.468;2023-08-01T05:17:53;97388.53;;;17.52;69.95
81057;BME280;70563;50.084;14.468;2023-08-01T05:20:19;97384.06;;;17.58;69.43
81057;BME280;70563;50.084;14.468;2023-08-01T05:22:45;97383.28;;;17.62;69.43
81057;BME280;70563;50.084;14.468;2023-08-01T05:25:10;97392.63;;;17.65;69.31
81057;BME280;70563;50.084;14.468;2023-08-01T05:27:35;97377.16;;;17.72;68.93
81057;BME280;70563;50.084;14.468;2023-08-01T05:30:01;97383.31;;;17.72;69.24
81057;BME280;70563;50.084;14.468;2023-08-01T05:32:26;97372.06;;;17.65;70.21
81057;BME280;70563;50.084;14.468;2023-08-01T05:34:51;97378.19;;;17.66;69.55
81057;BME280;70563;50.084;14.468;2023-08-01T05:37:17;97371.59;;;17.78;69.44
81057;BME280;70563;50.084;14.468;2023-08-01T05:39:42;97379.09;;;17.76;69.49
81057;BME280;70563;50.084;14.468;2023-08-01T05:42:07;97374.84;;;17.91;68.36
81057;BME280;70563;50.084;14.468;2023-08-01T05:44:36;97380.19;;;17.91;68.42
81057;BME280;70563;50.084;14.468;2023-08-01T05:47:01;97360.19;;;17.98;68.66
81057;BME280;70563;50.084;14.468;2023-08-01T05:49:26;97358.88;;;18.01;68.10
81057;BME280;70563;50.084;14.468;2023-08-01T05:51:53;97364.25;;;18.11;67.42
81057;BME280;70563;50.084;14.468;2023-08-01T05:54:18;97357.84;;;18.17;67.61
81057;BME280;70563;50.084;14.468;2023-08-01T05:56:44;97366.69;;;18.38;66.64
81057;BME280;70563;50.084;14.468;2023-08-01T05:59:09;97359.22;;;18.50;66.65
81057;BME280;70563;50.084;14.468;2023-08-01T06:01:34;97348.53;;;18.45;66.48
81057;BME280;70563;50.084;14.468;2023-08-01T06:04:00;97342.91;;;18.52;66.47
81057;BME280;70563;50.084;14.468;2023-08-01T06:06:25;97353.34;;;18.53;66.38
81057;BME280;70563;50.084;14.468;2023-08-01T06:08:50;97352.81;;;18.51;66.53
81057;BME280;70563;50.084;14.468;2023-08-01T06:11:17;97344.78;;;18.51;67.35
81057;BME280;70563;50.084;14.468;2023-08-01T06:13:42;97341.31;;;18.51;67.88
81057;BME280;70563;50.084;14.468;2023-08-01T06:16:07;97334.38;;;18.45;68.31
81057;BME280;70563;50.084;14.468;2023-08-01T06:18:33;97333.84;;;18.58;68.26
81057;BME280;70563;50.084;14.468;2023-08-01T06:20:58;97328.19;;;18.39;68.86
81057;BME280;70563;50.084;14.468;2023-08-01T06:23:23;97337.03;;;18.29;69.37
81057;BME280;70563;50.084;14.468;2023-08-01T06:25:49;97329.81;;;18.30;69.51
81057;BME280;70563;50.084;14.468;2023-08-01T06:28:14;97333.03;;;18.27;69.73
81057;BME280;70563;50.084;14.468;2023-08-01T06:30:40;97330.06;;;18.23;70.35
81057;BME280;70563;50.084;14.468;2023-08-01T06:33:05;97324.16;;;18.06;70.83
81057;BME280;70563;50.084;14.468;2023-08-01T06:35:30;97329.22;;;17.92;71.46
81057;BME280;70563;50.084;14.468;2023-08-01T06:37:56;97328.94;;;17.89;71.98
81057;BME280;70563;50.084;14.468;2023-08-01T06:40:21;97320.66;;;17.90;72.05
81057;BME280;70563;50.084;14.468;2023-08-01T06:42:46;97325.47;;;17.93;72.18
81057;BME280;70563;50.084;14.468;2023-08-01T06:45:12;97315.88;;;18.02;71.97
81057;BME280;70563;50.084;14.468;2023-08-01T06:47:37;97315.09;;;18.02;71.49
81057;BME280;70563;50.084;14.468;2023-08-01T06:50:03;97317.75;;;18.02;72.01
81057;BME280;70563;50.084;14.468;2023-08-01T06:52:30;97307.06;;;18.07;72.09
81057;BME280;70563;50.084;14.468;2023-08-01T06:54:55;97300.66;;;18.03;71.92
81057;BME280;70563;50.084;14.468;2023-08-01T06:57:20;97302.81;;;18.16;71.39
81057;BME280;70563;50.084;14.468;2023-08-01T06:59:46;97302.28;;;18.24;71.25
81057;BME280;70563;50.084;14.468;2023-08-01T07:02:11;97297.22;;;18.38;70.75
81057;BME280;70563;50.084;14.468;2023-08-01T07:04:36;97290.00;;;18.34;70.97
81057;BME280;70563;50.084;14.468;2023-08-01T07:07:03;97299.09;;;18.27;71.33
81057;BME280;70563;50.084;14.468;2023-08-01T07:09:28;97296.16;;;18.19;71.54
81057;BME280;70563;50.084;14.468;2023-08-01T07:11:54;97292.41;;;18.20;71.63
81057;BME280;70563;50.084;14.468;2023-08-01T07:14:20;97294.78;;;18.16;71.79
81057;BME280;70563;50.084;14.468;2023-08-01T07:16:45;97298.53;;;18.15;71.62
81057;BME280;70563;50.084;14.468;2023-08-01T07:19:10;97299.63;;;18.29;70.14
81057;BME280;70563;50.084;14.468;2023-08-01T07:21:36;97293.22;;;18.36;70.95
81057;BME280;70563;50.084;14.468;2023-08-01T07:24:01;97290.78;;;18.39;70.36
81057;BME280;70563;50.084;14.468;2023-08-01T07:26:26;97306.56;;;18.30;70.96
81057;BME280;70563;50.084;14.468;2023-08-01T07:28:54;97299.63;;;18.24;71.60
81057;BME280;70563;50.084;14.468;2023-08-01T07:31:19;97307.06;;;18.17;71.52
81057;BME280;70563;50.084;14.468;2023-08-01T07:33:44;97310.31;;;18.14;72.53
81057;BME280;70563;50.084;14.468;2023-08-01T07:36:10;97317.78;;;18.22;72.02
81057;BME280;70563;50.084;14.468;2023-08-01T07:38:35;97302.81;;;18.06;73.98
81057;BME280;70563;50.084;14.468;2023-08-01T07:41:05;97315.59;;;17.89;73.36
81057;BME280;70563;50.084;14.468;2023-08-01T07:43:32;97303.81;;;17.85;74.75
81057;BME280;70563;50.084;14.468;2023-08-01T07:45:58;97310.19;;;17.78;74.06
81057;BME280;70563;50.084;14.468;2023-08-01T07:48:24;97303.84;;;17.90;74.54
81057;BME280;70563;50.084;14.468;2023-08-01T07:50:50;97313.72;;;17.99;73.63
81057;BME280;70563;50.084;14.468;2023-08-01T07:53:15;97297.97;;;17.98;73.67
81057;BME280;70563;50.084;14.468;2023-08-01T07:55:41;97314.00;;;17.88;74.39
81057;BME280;70563;50.084;14.468;2023-08-01T07:58:06;97304.41;;;17.97;74.27
81057;BME280;70563;50.084;14.468;2023-08-01T08:00:34;97310.25;;;18.04;73.67
81057;BME280;70563;50.084;14.468;2023-08-01T08:02:59;97305.47;;;18.01;73.90
81057;BME280;70563;50.084;14.468;2023-08-01T08:05:25;97305.22;;;18.18;73.26
81057;BME280;70563;50.084;14.468;2023-08-01T08:07:50;97305.50;;;18.32;73.13
81057;BME280;70563;50.084;14.468;2023-08-01T08:10:15;97308.97;;;18.32;72.99
81057;BME280;70563;50.084;14.468;2023-08-01T08:12:41;97307.63;;;18.19;73.80
81057;BME280;70563;50.084;14.468;2023-08-01T08:15:07;97295.88;;;18.15;74.34
81057;BME280;70563;50.084;14.468;2023-08-01T08:17:32;97302.25;;;18.04;74.84
81057;BME280;70563;50.084;14.468;2023-08-01T08:19:57;97305.72;;;18.04;74.55
81057;BME280;70563;50.084;14.468;2023-08-01T08:22:23;97303.88;;;18.15;74.29
81057;BME280;70563;50.084;14.468;2023-08-01T08:24:48;97315.09;;;18.12;74.19
81057;BME280;70563;50.084;14.468;2023-08-01T08:27:14;97306.78;;;18.09;74.80
81057;BME280;70563;50.084;14.468;2023-08-01T08:29:39;97310.25;;;18.04;75.07
81057;BME280;70563;50.084;14.468;2023-08-01T08:32:05;97311.09;;;18.10;75.69
81057;BME280;70563;50.084;14.468;2023-08-01T08:34:30;97306.31;;;18.27;74.57
81057;BME280;70563;50.084;14.468;2023-08-01T08:36:56;97294.28;;;18.45;74.00
81057;BME280;70563;50.084;14.468;2023-08-01T08:39:21;97300.94;;;18.63;72.67
81057;BME280;70563;50.084;14.468;2023-08-01T08:41:48;97292.94;;;18.78;72.36
81057;BME280;70563;50.084;14.468;2023-08-01T08:44:18;97289.75;;;18.76;71.40
81057;BME280;70563;50.084;14.468;2023-08-01T08:46:51;97301.25;;;18.71;72.31
81057;BME280;70563;50.084;14.468;2023-08-01T08:49:20;97298.53;;;18.82;71.48
81057;BME280;70563;50.084;14.468;2023-08-01T08:51:47;97306.03;;;18.69;70.87
81057;BME280;70563;50.084;14.468;2023-08-01T08:54:14;97311.66;;;18.58;72.07
81057;BME280;70563;50.084;14.468;2023-08-01T08:56:40;97311.91;;;18.51;72.62
81057;BME280;70563;50.084;14.468;2023-08-01T08:59:07;97313.25;;;18.53;72.61
81057;BME280;70563;50.084;14.468;2023-08-01T09:01:33;97322.34;;;18.47;72.25
81057;BME280;70563;50.084;14.468;2023-08-01T09:03:59;97318.34;;;18.50;72.77
81057;BME280;70563;50.084;14.468;2023-08-01T09:06:28;97322.88;;;18.44;72.77
81057;BME280;70563;50.084;14.468;2023-08-01T09:09:05;97318.88;;;18.57;72.19
81057;BME280;70563;50.084;14.468;2023-08-01T09:14:08;97312.16;;;18.65;71.43
81057;BME280;70563;50.084;14.468;2023-08-01T09:16:34;97311.63;;;18.68;71.57
81057;BME280;70563;50.084;14.468;2023-08-01T09:18:59;97306.06;;;18.79;70.96
81057;BME280;70563;50.084;14.468;2023-08-01T09:21:25;97302.84;;;18.88;70.53
81057;BME280;70563;50.084;14.468;2023-08-01T09:23:50;97294.50;;;18.94;70.06
81057;BME280;70563;50.084;14.468;2023-08-01T09:26:18;97307.56;;;19.21;69.46
81057;BME280;70563;50.084;14.468;2023-08-01T09:28:44;97304.34;;;19.24;68.65
81057;BME280;70563;50.084;14.468;2023-08-01T09:31:26;97313.16;;;19.35;68.55
81057;BME280;70563;50.084;14.468;2023-08-01T09:33:52;97311.72;;;19.63;67.49
81057;BME280;70563;50.084;14.468;2023-08-01T09:36:21;97309.00;;;19.73;66.57
81057;BME280;70563;50.084;14.468;2023-08-01T09:38:46;97302.28;;;19.76;66.42
81057;BME280;70563;50.084;14.468;2023-08-01T09:41:17;97303.41;;;19.70;66.65
81057;BME280;70563;50.084;14.468;2023-08-01T09:43:44;97300.91;;;19.84;66.33
81057;BME280;70563;50.084;14.468;2023-08-01T09:46:11;97299.34;;;19.77;65.97
81057;BME280;70563;50.084;14.468;2023-08-01T09:48:37;97300.25;;;20.02;65.12
81057;BME280;70563;50.084;14.468;2023-08-01T09:51:07;97304.19;;;20.15;64.91
81057;BME280;70563;50.084;14.468;2023-08-01T09:53:32;97301.88;;;20.37;63.74
81057;BME280;70563;50.084;14.468;2023-08-01T09:56:00;97294.69;;;20.33;63.86
81057;BME280;70563;50.084;14.468;2023-08-01T09:58:32;97295.97;;;20.40;63.60
81057;BME280;70563;50.084;14.468;2023-08-01T10:00:58;97293.00;;;20.42;63.40
81057;BME280;70563;50.084;14.468;2023-08-01T10:03:27;97296.19;;;20.49;63.19
81057;BME280;70563;50.084;14.468;2023-08-01T10:05:53;97285.34;;;20.64;62.63
81057;BME280;70563;50.084;14.468;2023-08-01T10:08:20;97285.16;;;20.85;61.77
81057;BME280;70563;50.084;14.468;2023-08-01T10:10:47;97296.53;;;21.00;61.49
81057;BME280;70563;50.084;14.468;2023-08-01T10:13:13;97294.09;;;21.04;61.08
81057;BME280;70563;50.084;14.468;2023-08-01T10:15:39;97283.59;;;20.78;61.65
81057;BME280;70563;50.084;14.468;2023-08-01T10:18:04;97295.75;;;20.71;62.25
81057;BME280;70563;50.084;14.468;2023-08-01T10:20:30;97282.63;;;20.69;62.30
81057;BME280;70563;50.084;14.468;2023-08-01T10:22:56;97287.94;;;20.74;62.38
81057;BME280;70563;50.084;14.468;2023-08-01T10:25:23;97282.44;;;20.90;61.12
81057;BME280;70563;50.084;14.468;2023-08-01T10:28:02;97295.50;;;20.96;60.56
81057;BME280;70563;50.084;14.468;2023-08-01T10:30:29;97275.88;;;21.25;59.38
81057;BME280;70563;50.084;14.468;2023-08-01T10:32:55;97273.66;;;21.56;58.88
81057;BME280;70563;50.084;14.468;2023-08-01T10:35:42;97267.56;;;21.69;58.40
81057;BME280;70563;50.084;14.468;2023-08-01T10:38:10;97267.72;;;21.35;58.05
81057;BME280;70563;50.084;14.468;2023-08-01T10:40:41;97253.31;;;21.88;57.46
81057;BME280;70563;50.084;14.468;2023-08-01T10:43:24;97251.22;;;21.66;57.59
81057;BME280;70563;50.084;14.468;2023-08-01T10:46:05;97246.13;;;22.02;56.05
81057;BME280;70563;50.084;14.468;2023-08-01T10:48:30;97242.44;;;21.60;57.69
81057;BME280;70563;50.084;14.468;2023-08-01T10:50:56;97234.44;;;21.74;57.73
81057;BME280;70563;50.084;14.468;2023-08-01T10:53:22;97223.06;;;21.63;58.01
81057;BME280;70563;50.084;14.468;2023-08-01T10:55:48;97226.75;;;21.86;57.95
81057;BME280;70563;50.084;14.468;2023-08-01T10:58:14;97214.69;;;21.84;58.01
81057;BME280;70563;50.084;14.468;2023-08-01T11:00:41;97233.44;;;21.70;58.70
81057;BME280;70563;50.084;14.468;2023-08-01T11:03:07;97243.81;;;21.58;58.41
81057;BME280;70563;50.084;14.468;2023-08-01T11:05:33;97241.41;;;21.56;58.76
81057;BME280;70563;50.084;14.468;2023-08-01T11:08:00;97240.72;;;21.45;58.74
81057;BME280;70563;50.084;14.468;2023-08-01T11:10:28;97231.16;;;21.39;58.53
81057;BME280;70563;50.084;14.468;2023-08-01T11:12:53;97236.13;;;21.51;57.77
81057;BME280;70563;50.084;14.468;2023-08-01T11:15:19;97230.22;;;21.49;58.30
81057;BME280;70563;50.084;14.468;2023-08-01T11:17:50;97218.97;;;22.22;56.42
81057;BME280;70563;50.084;14.468;2023-08-01T11:20:17;97226.13;;;22.60;54.56
81057;BME280;70563;50.084;14.468;2023-08-01T11:25:15;97196.28;;;23.16;53.00
81057;BME280;70563;50.084;14.468;2023-08-01T11:27:41;97199.81;;;23.39;51.74
81057;BME280;70563;50.084;14.468;2023-08-01T11:30:07;97197.06;;;23.81;50.86
81057;BME280;70563;50.084;14.468;2023-08-01T11:32:37;97184.63;;;23.71;51.10
81057;BME280;70563;50.084;14.468;2023-08-01T11:35:03;97191.41;;;24.13;50.08
81057;BME280;70563;50.084;14.468;2023-08-01T11:37:30;97200.03;;;23.43;51.66
81057;BME280;70563;50.084;14.468;2023-08-01T11:39:56;97207.16;;;23.11;52.31
81057;BME280;70563;50.084;14.468;2023-08-01T11:42:22;97203.47;;;22.93;51.79
81057;BME280;70563;50.084;14.468;2023-08-01T11:44:48;97200.41;;;22.53;52.58
81057;BME280;70563;50.084;14.468;2023-08-01T11:47:14;97203.31;;;22.71;52.85
81057;BME280;70563;50.084;14.468;2023-08-01T11:49:46;97202.22;;;23.41;50.70
81057;BME280;70563;50.084;14.468;2023-08-01T11:52:27;97208.94;;;23.80;49.37
81057;BME280;70563;50.084;14.468;2023-08-01T11:54:55;97202.09;;;24.41;47.49
81057;BME280;70563;50.084;14.468;2023-08-01T11:57:21;97209.78;;;24.87;46.38
81057;BME280;70563;50.084;14.468;2023-08-01T11:59:48;97214.69;;;25.25;44.95
81057;BME280;70563;50.084;14.468;2023-08-01T12:02:24;97218.50;;;24.31;46.62
81057;BME280;70563;50.084;14.468;2023-08-01T12:04:51;97213.50;;;24.69;45.44
81057;BME280;70563;50.084;14.468;2023-08-01T12:07:16;97218.63;;;24.70;45.57
81057;BME280;70563;50.084;14.468;2023-08-01T12:09:42;97203.97;;;26.85;40.66
81057;BME280;70563;50.084;14.468;2023-08-01T12:12:09;97215.34;;;26.69;41.06
81057;BME280;70563;50.084;14.468;2023-08-01T12:14:39;97213.22;;;27.22;39.55
81057;BME280;70563;50.084;14.468;2023-08-01T12:17:05;97217.63;;;27.35;40.11
81057;BME280;70563;50.084;14.468;2023-08-01T12:19:30;97223.81;;;26.50;40.98
81057;BME280;70563;50.084;14.468;2023-08-01T12:21:58;97239.66;;;25.22;43.47
81057;BME280;70563;50.084;14.468;2023-08-01T12:24:24;97231.00;;;24.26;45.77
81057;BME280;70563;50.084;14.468;2023-08-01T12:26:49;97227.13;;;23.60;48.36
81057;BME280;70563;50.084;14.468;2023-08-01T12:29:14;97216.81;;;25.54;44.08
81057;BME280;70563;50.084;14.468;2023-08-01T12:31:40;97223.56;;;26.17;42.34
81057;BME280;70563;50.084;14.468;2023-08-01T12:34:05;97220.03;;;26.34;41.61
81057;BME280;70563;50.084;14.468;2023-08-01T12:36:31;97224.31;;;26.44;40.67
81057;BME280;70563;50.084;14.468;2023-08-01T12:38:56;97213.56;;;27.41;38.91
81057;BME280;70563;50.084;14.468;2023-08-01T12:41:21;97232.41;;;26.61;40.54
81057;BME280;70563;50.084;14.468;2023-08-01T12:43:47;97214.44;;;25.04;44.61
81057;BME280;70563;50.084;14.468;2023-08-01T12:46:12;97217.41;;;24.32;46.65
81057;BME280;70563;50.084;14.468;2023-08-01T12:48:37;97203.88;;;24.76;45.72
81057;BME280;70563;50.084;14.468;2023-08-01T12:51:03;97208.50;;;24.09;47.37